Time;durP1;ratioP1;P1;durP2;ratioP2;P2;SDS_P1;SDS_P2;PMS_P1;PMS_P2;Temp;Humidity;BMP_temperature;BMP_pressure;BME280_temperature;BME280_humidity;BME280_pressure;Samples;Min_cycle;Max_cycle;Signal;HPM_P1;HPM_P2
2022/07/12 00:00:20;;;;;;;4.95;4.55;;;;;;;15.26;100.00;102365.50;5022217;28;20066;-59
2022/07/12 00:02:45;;;;;;;4.90;4.50;;;;;;;15.23;100.00;102374.13;5028196;28;20045;-61
2022/07/12 00:05:10;;;;;;;5.90;4.35;;;;;;;15.20;100.00;102370.50;5028647;28;20079;-60
2022/07/12 00:07:35;;;;;;;4.53;4.13;;;;;;;15.16;100.00;102372.13;5028227;28;20465;-59
2022/07/12 00:10:01;;;;;;;4.47;4.07;;;;;;;15.15;100.00;102364.22;5027559;28;20033;-61
2022/07/12 00:12:26;;;;;;;7.47;4.03;;;;;;;15.10;100.00;102356.22;5020057;28;20037;-61
2022/07/12 00:14:51;;;;;;;4.82;4.43;;;;;;;15.09;100.00;102359.66;5027831;28;20396;-61
2022/07/12 00:17:17;;;;;;;4.05;3.45;;;;;;;15.03;100.00;102365.53;5028588;28;20021;-60
2022/07/12 00:19:42;;;;;;;4.07;3.70;;;;;;;14.99;100.00;102359.31;5028082;28;20140;-60
2022/07/12 00:22:08;;;;;;;5.18;3.85;;;;;;;14.95;100.00;102356.53;5021263;28;20026;-61
2022/07/12 00:24:33;;;;;;;3.78;3.50;;;;;;;14.91;100.00;102354.63;5021243;28;20021;-61
2022/07/12 00:26:59;;;;;;;4.07;3.78;;;;;;;14.89;100.00;102352.84;5028185;28;20026;-61
2022/07/12 00:29:25;;;;;;;3.53;3.22;;;;;;;14.83;100.00;102352.63;5028052;28;20488;-60
2022/07/12 00:31:51;;;;;;;3.70;3.33;;;;;;;14.78;100.00;102354.13;5027857;28;20032;-61
2022/07/12 00:34:16;;;;;;;4.38;3.28;;;;;;;14.74;100.00;102352.22;5027883;28;20025;-60
2022/07/12 00:36:41;;;;;;;3.67;3.20;;;;;;;14.72;100.00;102353.88;5027117;28;20028;-60
2022/07/12 00:39:06;;;;;;;3.67;3.47;;;;;;;14.71;100.00;102346.88;5026361;28;20544;-58
2022/07/12 00:41:32;;;;;;;3.55;3.25;;;;;;;14.69;100.00;102352.06;5027290;28;20584;-61
2022/07/12 00:43:57;;;;;;;3.80;3.20;;;;;;;14.68;100.00;102346.78;5027665;28;20027;-61
2022/07/12 00:46:23;;;;;;;3.08;2.88;;;;;;;14.68;100.00;102336.34;5027716;28;20769;-61
2022/07/12 00:48:49;;;;;;;3.45;2.92;;;;;;;14.68;100.00;102346.78;5015389;28;20022;-60
2022/07/12 00:51:17;;;;;;;3.22;2.90;;;;;;;14.63;100.00;102344.88;5018608;28;20018;-60
2022/07/12 00:53:43;;;;;;;4.88;3.00;;;;;;;14.59;100.00;102342.09;5021927;28;20032;-61
2022/07/12 00:56:09;;;;;;;2.72;2.53;;;;;;;14.55;100.00;102348.00;5015544;28;20021;-61
2022/07/12 00:58:34;;;;;;;2.90;2.70;;;;;;;14.51;100.00;102349.59;5027452;28;20592;-61
2022/07/12 01:00:59;;;;;;;3.00;2.80;;;;;;;14.46;100.00;102340.72;5026754;28;20030;-60
2022/07/12 01:03:27;;;;;;;3.65;3.08;;;;;;;14.39;100.00;102345.66;5020247;28;20041;-60
2022/07/12 01:05:53;;;;;;;5.20;3.25;;;;;;;14.34;100.00;102352.41;5021391;28;20029;-60
2022/07/12 01:08:19;;;;;;;3.40;3.10;;;;;;;14.31;100.00;102346.19;5025153;28;20033;-61
2022/07/12 01:10:45;;;;;;;3.97;3.08;;;;;;;14.27;100.00;102353.00;5027516;28;20057;-60
2022/07/12 01:13:11;;;;;;;4.20;3.10;;;;;;;14.22;100.00;102349.31;5027200;28;20081;-60
2022/07/12 01:15:37;;;;;;;3.45;3.25;;;;;;;14.19;100.00;102346.59;5020444;28;20029;-61
2022/07/12 01:18:04;;;;;;;3.50;3.20;;;;;;;14.16;100.00;102352.56;5012190;28;20032;-60
2022/07/12 01:20:29;;;;;;;3.78;3.20;;;;;;;14.13;100.00;102348.13;5021850;28;20033;-60
2022/07/12 01:22:59;;;;;;;4.28;3.88;;;;;;;14.12;100.00;102355.88;5026829;28;20050;-60
2022/07/12 01:25:25;;;;;;;4.65;3.50;;;;;;;14.10;100.00;102353.22;5014358;28;20029;-60
2022/07/12 01:27:51;;;;;;;3.50;3.20;;;;;;;14.06;100.00;102364.31;5027224;28;20100;-61
2022/07/12 01:30:16;;;;;;;3.72;3.35;;;;;;;14.07;100.00;102363.47;5026636;28;20460;-60
2022/07/12 01:32:42;;;;;;;3.70;3.40;;;;;;;14.10;100.00;102373.16;5026631;28;20021;-60
2022/07/12 01:35:08;;;;;;;4.65;4.25;;;;;;;14.09;100.00;102369.66;5026720;28;20049;-61
2022/07/12 01:37:36;;;;;;;5.18;4.80;;;;;;;14.07;100.00;102379.13;5024054;28;20074;-61
2022/07/12 01:40:03;;;;;;;4.47;4.18;;;;;;;14.03;100.00;102377.22;5025928;28;20099;-61
2022/07/12 01:42:30;;;;;;;4.07;3.78;;;;;;;13.98;100.00;102369.19;5025932;28;20053;-60
2022/07/12 01:44:56;;;;;;;4.80;4.40;;;;;;;13.93;100.00;102371.63;5026939;28;20120;-60
2022/07/12 01:47:23;;;;;;;4.88;4.45;;;;;;;13.87;100.00;102373.94;5026299;28;20120;-59
2022/07/12 01:49:48;;;;;;;4.53;4.13;;;;;;;13.85;100.00;102373.00;5026801;28;20120;-60
2022/07/12 01:52:14;;;;;;;4.53;4.13;;;;;;;13.80;100.00;102372.81;5026781;28;20116;-59
2022/07/12 01:54:40;;;;;;;6.35;4.18;;;;;;;13.74;100.00;102377.78;5026946;28;20295;-61
2022/07/12 01:57:06;;;;;;;4.28;3.88;;;;;;;13.70;100.00;102378.44;5026479;28;20030;-59
2022/07/12 01:59:31;;;;;;;4.18;3.60;;;;;;;13.72;100.00;102376.81;5017959;28;20026;-60
2022/07/12 02:01:57;;;;;;;5.38;4.13;;;;;;;13.72;100.00;102368.09;5026509;28;20029;-60
2022/07/12 02:04:23;;;;;;;4.82;3.60;;;;;;;13.70;100.00;102362.81;5012937;28;20033;-60
2022/07/12 02:06:49;;;;;;;4.15;3.85;;;;;;;13.69;100.00;102361.91;5024740;28;20036;-60
2022/07/12 02:09:15;;;;;;;4.03;3.72;;;;;;;13.67;100.00;102352.28;5026586;28;20057;-60
2022/07/12 02:11:43;;;;;;;4.00;3.70;;;;;;;13.67;100.00;102362.69;5026592;28;20096;-60
2022/07/12 02:14:09;;;;;;;4.28;3.80;;;;;;;13.66;100.00;102356.59;5025954;28;20052;-60
2022/07/12 02:16:34;;;;;;;4.18;3.45;;;;;;;13.64;100.00;102363.44;5026518;28;20032;-60
2022/07/12 02:19:00;;;;;;;4.18;3.85;;;;;;;13.61;100.00;102358.09;5013575;28;20474;-60
2022/07/12 02:21:26;;;;;;;4.35;3.88;;;;;;;13.57;100.00;102350.97;5021694;28;20044;-60
2022/07/12 02:23:51;;;;;;;3.80;3.40;;;;;;;13.56;100.00;102349.19;5026875;28;20033;-60
2022/07/12 02:26:16;;;;;;;4.63;4.22;;;;;;;13.55;100.00;102357.81;5025855;28;20061;-59
2022/07/12 02:28:42;;;;;;;4.50;4.10;;;;;;;13.54;100.00;102358.66;5026312;28;20102;-60
2022/07/12 02:31:08;;;;;;;4.32;3.58;;;;;;;13.50;100.00;102356.69;5017666;28;20013;-61
2022/07/12 02:33:34;;;;;;;3.97;3.63;;;;;;;13.49;100.00;102358.41;5026244;28;20022;-61
2022/07/12 02:36:01;;;;;;;4.10;3.78;;;;;;;13.49;100.00;102362.75;5026719;28;20101;-61
2022/07/12 02:38:27;;;;;;;4.45;3.67;;;;;;;13.45;100.00;102359.97;5025931;28;20033;-61
2022/07/12 02:40:55;;;;;;;3.85;3.55;;;;;;;13.42;100.00;102361.59;5025921;28;20053;-59
2022/07/12 02:43:21;;;;;;;4.63;4.22;;;;;;;13.41;100.00;102359.78;5026160;28;20103;-60
2022/07/12 02:45:46;;;;;;;3.85;3.55;;;;;;;13.38;100.00;102359.66;5012098;28;20033;-60
2022/07/12 02:48:12;;;;;;;3.95;3.50;;;;;;;13.38;100.00;102359.66;5025752;28;20033;-61
2022/07/12 02:50:38;;;;;;;4.18;3.78;;;;;;;13.35;100.00;102364.75;5026085;28;20477;-60
2022/07/12 02:53:08;;;;;;;4.45;4.05;;;;;;;13.31;100.00;102363.72;5029630;28;20125;-60
2022/07/12 02:55:34;;;;;;;3.67;3.42;;;;;;;13.26;100.00;102362.63;5028338;28;20524;-59
2022/07/12 02:58:00;;;;;;;3.80;3.50;;;;;;;13.21;100.00;102362.38;5029877;28;20025;-61
2022/07/12 03:00:26;;;;;;;4.10;3.70;;;;;;;13.21;100.00;102360.69;5029007;28;20061;-59
2022/07/12 03:02:51;;;;;;;3.90;3.60;;;;;;;13.20;100.00;102361.47;5029845;28;20594;-61
2022/07/12 03:05:17;;;;;;;3.80;3.50;;;;;;;13.18;100.00;102365.75;5029740;28;20081;-61
2022/07/12 03:07:42;;;;;;;3.80;3.35;;;;;;;13.17;100.00;102363.06;5026764;28;20444;-61
2022/07/12 03:10:08;;;;;;;5.15;3.55;;;;;;;13.14;100.00;102361.22;5026736;28;20646;-61
2022/07/12 03:12:34;;;;;;;4.20;3.67;;;;;;;13.14;100.00;102357.72;5021924;28;20030;-61
2022/07/12 03:14:59;;;;;;;4.32;4.00;;;;;;;13.11;100.00;102366.28;5029209;28;20033;-61
2022/07/12 03:17:25;;;;;;;4.68;4.38;;;;;;;13.09;100.00;102367.94;5029701;28;20564;-61
2022/07/12 03:19:50;;;;;;;4.30;4.00;;;;;;;13.06;100.00;102358.25;5028894;28;20112;-61
2022/07/12 03:22:15;;;;;;;4.10;3.80;;;;;;;13.06;100.00;102357.38;5019817;28;20102;-61
2022/07/12 03:24:41;;;;;;;4.57;4.18;;;;;;;13.07;100.00;102353.94;5022449;28;20071;-61
2022/07/12 03:27:06;;;;;;;4.50;4.10;;;;;;;13.10;100.00;102354.09;5028012;28;20033;-61
2022/07/12 03:29:31;;;;;;;5.25;4.75;;;;;;;13.10;100.00;102348.88;5027602;28;20096;-61
2022/07/12 03:31:57;;;;;;;4.78;4.40;;;;;;;13.08;100.00;102350.50;5026080;28;20022;-60
2022/07/12 03:34:22;;;;;;;4.43;4.03;;;;;;;13.10;100.00;102354.09;5027224;28;20022;-60
2022/07/12 03:36:48;;;;;;;4.88;4.53;;;;;;;13.08;100.00;102353.13;5027537;28;20429;-61
2022/07/12 03:39:13;;;;;;;5.15;4.65;;;;;;;13.03;100.00;102357.22;5026803;28;20465;-59
2022/07/12 03:41:39;;;;;;;6.68;5.53;;;;;;;12.97;100.00;102348.31;5028025;28;20088;-60
2022/07/12 03:44:05;;;;;;;5.18;4.88;;;;;;;12.95;100.00;102357.75;5027935;28;20477;-61
2022/07/12 03:46:32;;;;;;;5.57;5.07;;;;;;;12.91;100.00;102355.84;5028649;28;20025;-60
2022/07/12 03:48:58;;;;;;;6.25;5.25;;;;;;;12.90;100.00;102361.84;5027401;28;20049;-61
2022/07/12 03:51:24;;;;;;;5.38;4.88;;;;;;;12.89;100.00;102362.69;5028464;28;20025;-61
2022/07/12 03:53:49;;;;;;;5.00;4.63;;;;;;;12.90;100.00;102361.84;5028228;28;20536;-61
2022/07/12 03:57:13;;;;;;;4.50;4.15;;;;;;;12.89;100.00;102360.09;5028355;28;20022;-61
2022/07/12 03:59:00;;;;;;;5.68;5.28;;;;;;;12.89;100.00;102367.91;5025023;28;20037;-60
2022/07/12 04:01:25;;;;;;;5.32;4.90;;;;;;;12.90;100.00;102363.59;5027882;28;20033;-61
2022/07/12 04:03:50;;;;;;;5.82;5.43;;;;;;;12.88;100.00;102358.28;5018096;28;20026;-60
2022/07/12 04:06:16;;;;;;;4.80;4.45;;;;;;;12.85;100.00;102359.06;5024894;28;20508;-61
2022/07/12 04:08:41;;;;;;;4.63;4.32;;;;;;;12.86;100.00;102357.34;5028389;28;20022;-60
2022/07/12 04:11:07;;;;;;;4.60;4.20;;;;;;;12.86;100.00;102357.34;5027955;28;20500;-60
2022/07/12 04:13:33;;;;;;;4.47;4.07;;;;;;;12.83;100.00;102349.38;5028041;28;20025;-61
2022/07/12 04:15:59;;;;;;;4.40;4.03;;;;;;;12.80;100.00;102354.44;5028427;28;20033;-61
2022/07/12 04:18:24;;;;;;;4.60;4.20;;;;;;;12.82;100.00;102351.13;5028418;28;20021;-60
2022/07/12 04:20:49;;;;;;;5.15;4.25;;;;;;;12.87;100.00;102351.31;5017988;28;20069;-60
2022/07/12 04:23:15;;;;;;;4.30;4.00;;;;;;;12.89;100.00;102360.09;5024718;28;20065;-61
2022/07/12 04:25:40;;;;;;;4.40;4.00;;;;;;;12.91;100.00;102361.06;5028060;28;20029;-61
2022/07/12 04:28:05;;;;;;;6.03;5.53;;;;;;;12.90;100.00;102361.84;5028159;28;20509;-59
2022/07/12 04:30:30;;;;;;;6.25;5.65;;;;;;;12.93;100.00;102359.38;5025124;28;20128;-60
2022/07/12 04:32:56;;;;;;;5.82;5.32;;;;;;;12.97;100.00;102363.94;5019987;28;20074;-61
2022/07/12 04:35:22;;;;;;;6.80;6.20;;;;;;;13.04;100.00;102365.09;5023467;28;20052;-60
2022/07/12 04:37:48;;;;;;;6.57;6.10;;;;;;;13.08;100.00;102366.13;5024298;28;20385;-60
2022/07/12 04:40:13;;;;;;;5.60;5.20;;;;;;;13.14;100.00;102378.53;5012128;28;20053;-60
2022/07/12 04:42:38;;;;;;;6.35;5.95;;;;;;;13.16;100.00;102375.19;5020332;28;20025;-61
2022/07/12 04:45:04;;;;;;;7.30;6.78;;;;;;;13.21;100.00;102375.41;5008954;28;20025;-59
2022/07/12 04:47:29;;;;;;;6.90;6.40;;;;;;;13.26;100.00;102373.91;5019673;28;20026;-61
2022/07/12 04:49:55;;;;;;;6.47;5.97;;;;;;;13.31;100.00;102369.78;5009109;28;20092;-61
2022/07/12 04:52:20;;;;;;;6.40;5.63;;;;;;;13.38;100.00;102372.69;5008529;28;20053;-61
2022/07/12 04:54:46;;;;;;;6.60;6.10;;;;;;;13.43;100.00;102363.34;5008697;28;20367;-61
2022/07/12 04:57:12;;;;;;;6.38;5.88;;;;;;;13.49;100.00;102367.94;5008469;28;20032;-61
2022/07/12 04:59:37;;;;;;;7.38;6.78;;;;;;;13.57;100.00;102377.00;5016234;28;20034;-60
2022/07/12 05:02:02;;;;;;;8.60;7.78;;;;;;;13.62;100.00;102372.91;5012830;28;20065;-61
2022/07/12 05:04:32;;;;;;;7.22;6.63;;;;;;;13.71;100.00;102380.22;5010400;28;20056;-60
2022/07/12 05:06:57;;;;;;;8.23;7.53;;;;;;;13.80;100.00;102369.31;5018007;28;20037;-60
2022/07/12 05:09:22;;;;;;;9.73;8.82;;;;;;;13.89;100.00;102368.81;5023294;28;20371;-60
2022/07/12 05:11:47;;;;;;;10.25;9.35;;;;;;;14.01;100.00;102378.88;5017563;28;20034;-61
2022/07/12 05:14:13;;;;;;;11.00;10.10;;;;;;;14.11;100.00;102375.84;5006203;28;20037;-61
2022/07/12 05:16:38;;;;;;;11.95;10.95;;;;;;;14.23;100.00;102383.25;5013118;28;20029;-61
2022/07/12 05:19:03;;;;;;;12.50;11.50;;;;;;;14.36;100.00;102383.75;5016915;28;20033;-61
2022/07/12 05:21:29;;;;;;;14.30;13.20;;;;;;;14.45;100.00;102391.97;5008142;28;20021;-59
2022/07/12 05:23:54;;;;;;;14.80;13.70;;;;;;;14.57;100.00;102394.19;5008403;28;20025;-61
2022/07/12 05:26:19;;;;;;;14.45;13.35;;;;;;;14.69;100.00;102398.13;5008308;28;20058;-61
2022/07/12 05:28:45;;;;;;;17.05;15.68;;;;;;;14.79;100.00;102395.03;5007351;28;20493;-61
2022/07/12 05:31:11;;;;;;;14.90;13.85;;;;;;;14.89;100.00;102402.41;5007689;28;20040;-60
2022/07/12 05:33:36;;;;;;;17.10;15.80;;;;;;;14.99;100.00;102401.06;5008114;28;20026;-60
2022/07/12 05:36:01;;;;;;;16.40;15.20;;;;;;;15.09;100.00;102402.28;5007892;28;20034;-60
2022/07/12 05:38:27;;;;;;;15.85;14.65;;;;;;;15.21;100.00;102409.72;5008276;28;20026;-60
2022/07/12 05:40:52;;;;;;;15.15;13.95;;;;;;;15.32;100.00;102417.06;5016467;28;20054;-61
2022/07/12 05:43:17;;;;;;;13.88;12.88;;;;;;;15.43;100.00;102412.25;5020031;28;20462;-61
2022/07/12 05:45:43;;;;;;;15.00;13.90;;;;;;;15.55;100.00;102420.53;5018782;28;20505;-60
2022/07/12 05:48:08;;;;;;;16.48;15.27;;;;;;;15.64;100.00;102421.69;5007591;28;20421;-60
2022/07/12 05:50:33;;;;;;;15.80;14.38;;;;;;;15.75;100.00;102427.31;5006666;28;20084;-63
2022/07/12 05:55:44;;;;;;;15.32;14.23;;;;;;;16.04;100.00;102428.38;5006808;28;20398;-63
2022/07/12 05:58:10;;;;;;;15.05;13.75;;;;;;;16.19;100.00;102434.97;5008015;28;20022;-61
2022/07/12 06:00:36;;;;;;;14.10;13.10;;;;;;;16.33;100.00;102443.28;5019281;28;20021;-63
2022/07/12 06:03:01;;;;;;;14.25;13.15;;;;;;;16.49;100.00;102442.06;5006400;28;20120;-63
2022/07/12 06:05:27;;;;;;;14.20;13.10;;;;;;;16.62;100.00;102437.22;5017491;28;20029;-63
2022/07/12 06:07:52;;;;;;;15.18;14.02;;;;;;;16.69;100.00;102444.44;5026202;28;20029;-63
2022/07/12 06:10:18;;;;;;;14.13;13.02;;;;;;;16.77;100.00;102442.03;5021099;28;20075;-63
2022/07/12 06:12:43;;;;;;;14.27;13.18;;;;;;;16.86;100.00;102442.34;5021118;28;20025;-63
2022/07/12 06:15:09;;;;;;;14.95;13.75;;;;;;;16.98;100.00;102448.81;5026079;28;20096;-63
2022/07/12 06:17:35;;;;;;;13.32;12.18;;;;;;;17.07;100.00;102450.81;5026510;28;20079;-62
2022/07/12 06:20:00;;;;;;;13.00;11.77;;;;;;;17.17;100.00;102445.03;5026080;28;20022;-63
2022/07/12 06:22:26;;;;;;;13.05;12.10;;;;;;;17.28;100.00;102448.88;5026230;28;20489;-63
2022/07/12 06:24:51;;;;;;;13.30;12.20;;;;;;;17.41;100.00;102451.88;5027271;28;20036;-63
2022/07/12 06:27:16;;;;;;;14.02;13.02;;;;;;;17.54;100.00;102447.84;5029561;28;20045;-63
2022/07/12 06:29:47;;;;;;;11.75;11.00;;;;;;;17.67;100.00;102453.44;5013611;28;20036;-63
2022/07/12 06:32:13;;;;;;;12.60;11.70;;;;;;;17.79;100.00;102447.66;5022180;28;20489;-62
2022/07/12 06:34:38;;;;;;;12.82;11.73;;;;;;;17.90;100.00;102450.56;5009472;28;20112;-62
2022/07/12 06:37:03;;;;;;;12.20;11.20;;;;;;;17.96;100.00;102451.63;5013563;28;20386;-63
2022/07/12 06:39:30;;;;;;;12.30;11.40;;;;;;;18.02;100.00;102450.00;5010196;28;20075;-63
2022/07/12 06:41:57;;;;;;;11.85;10.98;;;;;;;18.12;100.00;102446.78;5009266;28;20056;-63
2022/07/12 06:44:22;;;;;;;11.88;10.93;;;;;;;18.27;100.00;102448.06;5010012;28;20492;-63
2022/07/12 06:46:47;;;;;;;12.45;11.40;;;;;;;18.41;100.00;102446.66;5012641;28;20108;-63
2022/07/12 06:49:12;;;;;;;11.02;10.05;;;;;;;18.54;100.00;102450.50;5009208;28;20046;-62
2022/07/12 06:51:39;;;;;;;10.13;9.43;;;;;;;18.68;100.00;102448.19;5009420;28;20421;-63
2022/07/12 06:54:04;;;;;;;11.07;10.13;;;;;;;18.82;100.00;102444.97;5013155;28;20056;-63
2022/07/12 06:56:29;;;;;;;11.88;10.95;;;;;;;18.92;100.00;102447.00;5018790;28;20021;-63
2022/07/12 06:58:55;;;;;;;14.32;10.85;;;;;;;19.08;100.00;102453.47;5009314;28;20018;-63
2022/07/12 07:01:20;;;;;;;9.50;8.30;;;;;;;19.24;100.00;102450.31;5010412;28;20068;-63
2022/07/12 07:03:45;;;;;;;7.70;7.10;;;;;;;19.38;100.00;102448.84;5010816;28;20057;-63
2022/07/12 07:06:11;;;;;;;7.45;6.85;;;;;;;19.51;100.00;102451.72;5025241;28;20458;-63
2022/07/12 07:08:36;;;;;;;6.45;5.95;;;;;;;19.69;100.00;102453.84;5029104;28;20028;-63
2022/07/12 07:11:02;;;;;;;6.78;6.28;;;;;;;19.84;98.88;102445.34;5029919;28;20056;-63
2022/07/12 07:13:27;;;;;;;5.63;5.13;;;;;;;19.99;98.07;102446.50;5030002;28;20024;-63
2022/07/12 07:15:52;;;;;;;5.50;5.00;;;;;;;20.13;98.01;102452.06;5018245;28;20026;-63
2022/07/12 07:18:18;;;;;;;5.60;5.20;;;;;;;20.26;97.78;102454.03;5027111;28;20029;-62
2022/07/12 07:20:43;;;;;;;5.15;4.65;;;;;;;20.39;95.19;102449.84;5029541;28;20029;-63
2022/07/12 07:23:10;;;;;;;6.15;5.45;;;;;;;20.36;90.40;102448.91;5029551;28;20024;-63
2022/07/12 07:25:35;;;;;;;7.50;6.80;;;;;;;20.40;90.55;102448.97;5026000;28;20032;-63
2022/07/12 07:28:00;;;;;;;5.47;5.07;;;;;;;20.52;92.03;102450.06;5023244;28;20026;-64
2022/07/12 07:33:10;;;;;;;6.88;6.38;;;;;;;20.79;86.23;102446.06;5029365;28;20056;-63
2022/07/12 07:35:35;;;;;;;7.43;6.40;;;;;;;20.82;86.76;102453.13;5023572;28;20022;-63
2022/07/12 07:38:00;;;;;;;5.78;5.38;;;;;;;20.93;86.09;102445.38;5028774;28;20132;-63
2022/07/12 07:40:26;;;;;;;5.57;5.07;;;;;;;21.14;86.79;102436.03;5021985;28;20332;-63
2022/07/12 07:42:54;;;;;;;5.10;4.63;;;;;;;21.37;87.64;102435.44;5029033;28;20036;-63
2022/07/12 07:45:19;;;;;;;5.70;5.15;;;;;;;21.52;85.88;102440.88;5028522;28;20071;-63
2022/07/12 07:47:46;;;;;;;5.68;5.10;;;;;;;21.68;84.35;102435.75;5028994;28;20033;-63
2022/07/12 07:50:11;;;;;;;4.78;4.40;;;;;;;21.82;82.85;102444.72;5028651;28;20028;-63
2022/07/12 07:52:37;;;;;;;5.78;5.28;;;;;;;21.62;79.54;102438.34;5023037;28;20022;-62
2022/07/12 07:55:03;;;;;;;5.75;5.28;;;;;;;21.52;79.14;102438.22;5021655;28;20167;-61
2022/07/12 07:57:29;;;;;;;4.97;4.63;;;;;;;21.47;79.01;102432.03;5028146;28;20013;-61
2022/07/12 07:59:54;;;;;;;5.82;5.30;;;;;;;21.54;79.95;102443.53;5028391;28;20121;-61
2022/07/12 08:02:20;;;;;;;6.53;6.03;;;;;;;21.56;79.81;102440.06;5028925;28;20478;-60
2022/07/12 08:04:45;;;;;;;6.55;5.95;;;;;;;21.55;77.80;102432.97;5015363;28;20479;-61
2022/07/12 08:07:10;;;;;;;4.25;3.85;;;;;;;21.71;79.29;102430.53;5028543;28;20055;-61
2022/07/12 08:09:35;;;;;;;5.72;5.22;;;;;;;21.85;77.99;102435.97;5028597;28;20029;-60
2022/07/12 08:12:01;;;;;;;6.05;5.55;;;;;;;21.85;76.71;102437.72;5021816;28;20033;-61
2022/07/12 08:14:26;;;;;;;5.97;5.47;;;;;;;21.95;77.13;102439.56;5022814;28;20443;-60
2022/07/12 08:16:52;;;;;;;5.53;5.13;;;;;;;21.90;76.15;102436.00;5028301;28;20032;-61
2022/07/12 08:19:18;;;;;;;5.13;4.63;;;;;;;21.92;76.75;102436.91;5027875;28;20116;-61
2022/07/12 08:21:43;;;;;;;4.60;4.20;;;;;;;22.08;76.65;102435.31;5027928;28;20025;-60
2022/07/12 08:24:08;;;;;;;4.20;3.80;;;;;;;22.24;76.19;102436.31;5028479;28;20033;-61
2022/07/12 08:26:34;;;;;;;4.80;4.15;;;;;;;22.42;75.50;102445.25;5028196;28;20207;-61
2022/07/12 08:28:59;;;;;;;5.13;4.82;;;;;;;22.51;73.87;102440.03;5027865;28;20036;-61
2022/07/12 08:31:24;;;;;;;4.40;3.67;;;;;;;22.64;74.52;102435.78;5028233;28;20032;-61
2022/07/12 08:33:51;;;;;;;3.80;3.50;;;;;;;22.83;74.80;102432.34;5024302;28;20025;-61
2022/07/12 08:36:16;;;;;;;4.45;4.05;;;;;;;22.95;74.09;102440.34;5019871;28;20022;-61
2022/07/12 08:38:44;;;;;;;3.70;3.35;;;;;;;23.09;74.15;102439.53;5028226;28;20476;-62
2022/07/12 08:41:11;;;;;;;3.60;3.35;;;;;;;23.17;73.21;102444.84;5027157;28;20051;-62
2022/07/12 08:43:37;;;;;;;3.30;3.10;;;;;;;23.10;72.99;102449.19;5018482;28;20038;-60
2022/07/12 08:46:10;;;;;;;3.83;3.53;;;;;;;23.11;72.96;102451.00;5026274;28;20444;-61
2022/07/12 08:48:36;;;;;;;5.43;5.03;;;;;;;23.03;71.61;102449.19;5027854;28;20036;-61
2022/07/12 08:51:04;;;;;;;4.93;4.53;;;;;;;23.04;72.30;102447.44;5027309;28;20087;-61
2022/07/12 08:53:30;;;;;;;4.07;3.78;;;;;;;23.11;72.78;102461.56;5026617;28;20448;-61
2022/07/12 08:55:55;;;;;;;5.05;4.65;;;;;;;23.21;71.13;102458.06;5027966;28;20045;-61
2022/07/12 08:58:20;;;;;;;3.20;2.95;;;;;;;23.44;72.80;102457.31;5024780;28;20029;-60
2022/07/12 09:00:46;;;;;;;6.82;3.65;;;;;;;23.75;72.70;102453.88;5010971;28;20124;-61
2022/07/12 09:03:14;;;;;;;3.03;2.70;;;;;;;24.01;70.50;102455.69;5018176;28;20029;-61
2022/07/12 09:05:47;;;;;;;5.95;3.78;;;;;;;24.21;67.56;102453.06;5017172;28;20033;-61
2022/07/12 09:08:12;;;;;;;3.70;3.20;;;;;;;24.44;68.30;102453.94;5020726;28;20047;-61
2022/07/12 09:10:50;;;;;;;3.80;3.60;;;;;;;24.56;65.85;102456.56;5026373;28;20029;-61
2022/07/12 09:13:16;;;;;;;4.07;3.70;;;;;;;24.72;65.09;102453.88;5027356;28;20025;-61
2022/07/12 09:15:42;;;;;;;4.22;3.88;;;;;;;24.82;65.14;102455.63;5027328;28;20025;-60
2022/07/12 09:18:13;;;;;;;3.03;2.83;;;;;;;24.99;66.03;102453.88;5027267;28;20052;-61
2022/07/12 09:20:39;;;;;;;3.78;2.75;;;;;;;25.17;66.38;102444.94;5027239;28;20112;-61
2022/07/12 09:23:07;;;;;;;3.17;2.97;;;;;;;25.23;63.81;102450.22;5013360;28;20445;-60
2022/07/12 09:25:33;;;;;;;6.28;3.63;;;;;;;25.26;62.58;102449.31;5026572;28;20087;-61
2022/07/12 09:28:00;;;;;;;2.80;2.60;;;;;;;25.39;63.67;102450.13;5027086;28;20029;-62
2022/07/12 09:30:27;;;;;;;4.57;4.28;;;;;;;25.49;62.14;102451.00;5026872;28;20026;-62
2022/07/12 09:36:13;;;;;;;3.70;3.40;;;;;;;25.66;63.12;102440.28;5015909;28;20121;-60
2022/07/12 09:39:00;;;;;;;3.67;3.03;;;;;;;25.75;62.07;102442.88;5026741;28;20075;-61
2022/07/12 09:41:25;;;;;;;2.78;2.53;;;;;;;25.97;62.12;102439.19;5025573;28;20064;-62
2022/07/12 09:43:52;;;;;;;2.85;2.55;;;;;;;26.09;62.44;102441.75;5026408;28;20033;-62
2022/07/12 09:46:17;;;;;;;4.65;4.30;;;;;;;26.06;59.08;102440.88;5027128;28;20392;-61
2022/07/12 09:48:44;;;;;;;4.20;3.80;;;;;;;25.94;58.39;102441.88;5026963;28;20021;-61
2022/07/12 09:51:13;;;;;;;3.67;3.38;;;;;;;25.99;61.08;102445.38;5026992;28;20029;-62
2022/07/12 09:53:44;;;;;;;3.03;2.80;;;;;;;26.03;61.52;102441.78;5025837;28;20041;-62
2022/07/12 09:56:11;;;;;;;3.15;2.63;;;;;;;26.09;59.93;102440.84;5014417;28;20083;-61
2022/07/12 09:58:43;;;;;;;3.22;2.55;;;;;;;26.24;59.80;102435.44;5026890;28;20082;-62
2022/07/12 10:01:10;;;;;;;3.70;3.28;;;;;;;26.32;56.91;102435.34;5012737;28;20033;-62
2022/07/12 10:03:39;;;;;;;3.15;2.95;;;;;;;26.40;58.03;102429.09;5018610;28;20030;-61
2022/07/12 10:06:04;;;;;;;2.60;2.40;;;;;;;26.49;57.48;102426.34;5021952;28;20032;-61
2022/07/12 10:08:30;;;;;;;2.28;2.10;;;;;;;26.64;58.15;102422.66;5026580;28;20029;-62
2022/07/12 10:10:57;;;;;;;2.33;2.13;;;;;;;26.70;56.86;102416.38;5026299;28;20033;-62
2022/07/12 10:13:23;;;;;;;4.43;3.13;;;;;;;26.64;55.03;102427.09;5027074;28;20395;-61
2022/07/12 10:15:50;;;;;;;2.75;2.50;;;;;;;26.69;56.97;102425.25;5026657;28;20196;-60
2022/07/12 10:18:17;;;;;;;3.53;3.15;;;;;;;26.72;56.62;102423.44;5026106;28;20021;-62
2022/07/12 10:20:45;;;;;;;4.80;3.00;;;;;;;26.81;56.84;102413.59;5017912;28;20026;-63
2022/07/12 10:23:30;;;;;;;4.60;3.05;;;;;;;26.57;53.85;102413.84;5022278;28;20028;-61
2022/07/12 10:25:56;;;;;;;2.35;2.10;;;;;;;26.42;56.14;102422.00;5026868;28;20029;-62
2022/07/12 10:28:21;;;;;;;2.78;2.40;;;;;;;26.43;57.43;102413.13;5026464;28;20362;-61
2022/07/12 10:30:50;;;;;;;3.42;2.38;;;;;;;26.10;54.15;102416.06;5026669;28;20036;-62
2022/07/12 10:33:21;;;;;;;1.80;1.70;;;;;;;26.13;55.75;102416.03;5026289;28;20025;-62
2022/07/12 10:36:00;;;;;;;2.72;2.38;;;;;;;26.23;54.49;102416.81;5026853;28;20452;-61
2022/07/12 10:38:26;;;;;;;2.60;2.40;;;;;;;26.42;53.36;102411.38;5026429;28;20578;-62
2022/07/12 10:40:51;;;;;;;3.10;2.30;;;;;;;26.29;54.07;102408.81;5026234;28;20121;-61
2022/07/12 10:46:18;;;;;;;2.80;2.28;;;;;;;26.80;56.17;102407.41;5015777;28;20041;-61
2022/07/12 10:48:44;;;;;;;2.50;2.05;;;;;;;26.92;54.99;102401.06;5026072;28;20045;-61
2022/07/12 10:51:20;;;;;;;2.63;2.40;;;;;;;27.00;54.07;102398.31;5026141;28;20030;-61
2022/07/12 10:53:48;;;;;;;3.20;2.97;;;;;;;27.04;52.06;102407.16;5025410;28;20296;-61
2022/07/12 10:56:18;;;;;;;2.10;2.00;;;;;;;26.99;52.78;102399.19;5026186;28;20031;-62
2022/07/12 10:58:49;;;;;;;1.95;1.70;;;;;;;26.96;52.83;102400.13;5025824;28;20597;-61
2022/07/12 11:01:18;;;;;;;;;;;;;;;27.08;51.13;102400.88;5014290;28;20021;-61
2022/07/12 11:03:55;;;;;;;2.58;2.38;;;;;;;27.13;51.44;102403.50;5016714;28;19968;-62
2022/07/12 11:06:22;;;;;;;2.38;2.17;;;;;;;27.24;53.72;102412.19;5021290;28;20025;-61
2022/07/12 11:09:04;;;;;;;2.80;2.20;;;;;;;27.30;52.07;102409.47;5015694;28;20340;-60
2022/07/12 11:11:31;;;;;;;2.22;1.98;;;;;;;27.44;54.17;102414.56;5011450;28;20033;-61
2022/07/12 11:13:58;;;;;;;2.95;2.75;;;;;;;27.51;51.77;102409.16;5029717;28;20026;-61
2022/07/12 11:16:24;;;;;;;3.30;3.00;;;;;;;27.25;50.62;102408.66;5029218;28;20025;-61
2022/07/12 11:18:50;;;;;;;2.72;2.53;;;;;;;27.30;51.50;102405.91;5020634;28;20077;-61
2022/07/12 11:21:16;;;;;;;2.33;2.13;;;;;;;27.32;52.08;102407.66;5028871;28;20116;-61
2022/07/12 11:23:42;;;;;;;3.65;3.00;;;;;;;27.47;51.91;102397.66;5019658;28;20090;-61